This is the latest recevied weather packets stored in our database for station/object FREPRT-WX. If no packets are shown the sender has not sent any weather packets the latest 10 day(s).
| Time | Temp. | Humidity | Pressure | Rain* | Wind** | Luminosity | Snow |
|---|---|---|---|---|---|---|---|
| 1777646736 | 6.67° C | 63% | 986.1 hPa | 0 mm | - | - | - |
| 1777645856 | 6.11° C | 59% | 986.7 hPa | 0 mm | - | - | - |
| 1777644937 | 6.11° C | 59% | 986.7 hPa | 0 mm | - | - | - |
| 1777644074 | 5.56° C | 59% | 986.7 hPa | 0 mm | - | - | - |
| 1777643137 | 5.56° C | 63% | 986 hPa | 0 mm | - | - | - |
| 1777642254 | 5° C | 63% | 986 hPa | 0 mm | - | - | - |
| 1777641337 | 4.44° C | 63% | 986 hPa | 0 mm | - | - | - |
| 1777640466 | 3.89° C | 63% | 986 hPa | 0 mm | - | - | - |
| 1777639537 | 3.89° C | 70% | 985.7 hPa | 0 mm | - | - | - |
| 1777638654 | 3.89° C | 68% | 985.6 hPa | 0 mm | - | - | - |
| 1777637737 | 3.33° C | 68% | 985.6 hPa | 0 mm | - | - | - |
| 1777636869 | 3.33° C | 68% | 985.6 hPa | 0 mm | - | - | - |
| 1777635937 | 3.33° C | 73% | 984.9 hPa | 0 mm | - | - | - |
| 1777635054 | 3.33° C | 79% | 985 hPa | 0 mm | - | - | - |
| 1777634137 | 3.33° C | 79% | 985.1 hPa | 0 mm | - | - | - |
| 1777633265 | 3.33° C | 79% | 985.1 hPa | 0 mm | - | - | - |
| 1777632337 | 3.33° C | 78% | 984.7 hPa | 0 mm | - | - | - |
| 1777631456 | 3.33° C | 80% | 985.4 hPa | 0 mm | - | - | - |
| 1777630537 | 2.78° C | 80% | 985.4 hPa | 0 mm | - | - | - |
| 1777629669 | 2.78° C | 80% | 985.4 hPa | 0 mm | - | - | - |
| 1777628737 | 2.78° C | 76% | 985.8 hPa | 0 mm | - | - | - |
| 1777627853 | 2.78° C | 81% | 985.5 hPa | 0 mm | - | - | - |
| 1777626937 | 2.78° C | 81% | 985.5 hPa | 0 mm | - | - | - |
| 1777626062 | 2.78° C | 81% | 985.5 hPa | 0 mm | - | - | - |
| 1777625136 | 2.78° C | 80% | 985.4 hPa | 0 mm | - | - | - |
* Rain latest hour (hover to see other rain measurements)
** Current wind speed in m/s (hover to see current wind gust speed)